createdAt,value
2023-02-24T00:00:33.825Z,87.51
2023-02-24T00:03:39.332Z,87.86
2023-02-24T00:06:43.854Z,89.30
2023-02-24T00:09:46.762Z,90.25
2023-02-24T00:12:49.448Z,91.58
2023-02-24T00:16:01.130Z,91.77
2023-02-24T00:19:07.496Z,91.19
2023-02-24T00:22:10.818Z,91.56
2023-02-24T00:25:14.705Z,92.00
2023-02-24T00:28:17.531Z,93.32
2023-02-24T00:31:21.031Z,93.39
2023-02-24T00:34:24.116Z,93.34
2023-02-24T00:37:26.790Z,93.47
2023-02-24T00:40:30.712Z,93.67
2023-02-24T00:43:37.393Z,94.33
2023-02-24T00:46:45.424Z,95.35
2023-02-24T00:49:50.001Z,96.41
2023-02-24T00:52:52.885Z,97.13
2023-02-24T00:56:02.232Z,97.63
2023-02-24T00:59:05.229Z,98.70
2023-02-24T01:02:08.297Z,98.96
2023-02-24T01:05:12.769Z,99.79
2023-02-24T01:08:21.478Z,100.00
2023-02-24T01:11:45.774Z,100.00
2023-02-24T01:14:51.054Z,100.00
2023-02-24T01:17:53.965Z,100.00
2023-02-24T01:20:58.668Z,100.00
2023-02-24T01:24:01.537Z,99.44
2023-02-24T01:27:05.237Z,98.81
2023-02-24T01:30:18.195Z,98.99
2023-02-24T01:33:21.781Z,99.77
2023-02-24T01:36:25.963Z,100.00
2023-02-24T01:39:30.233Z,100.00
2023-02-24T01:42:33.057Z,100.00
2023-02-24T01:45:40.093Z,99.85
2023-02-24T01:48:43.017Z,99.88
2023-02-24T01:51:54.952Z,100.00
2023-02-24T01:55:16.749Z,100.00
2023-02-24T01:58:25.079Z,100.00
2023-02-24T02:01:40.277Z,99.80
2023-02-24T02:04:48.143Z,99.67
2023-02-24T02:07:50.853Z,100.00
2023-02-24T02:10:58.905Z,99.41
2023-02-24T02:14:02.225Z,99.33
2023-02-24T02:17:19.465Z,98.71
2023-02-24T02:20:38.122Z,98.39
2023-02-24T02:23:49.857Z,98.25
2023-02-24T02:27:29.475Z,98.19
2023-02-24T02:30:45.093Z,97.79
2023-02-24T02:34:05.448Z,98.03
2023-02-24T02:37:24.623Z,97.69
2023-02-24T02:40:38.938Z,97.79
2023-02-24T02:43:52.589Z,97.82
2023-02-24T02:47:13.359Z,97.48
2023-02-24T02:50:27.068Z,97.84
2023-02-24T02:53:47.194Z,96.75
2023-02-24T02:56:59.291Z,96.69
2023-02-24T03:00:13.652Z,96.90
2023-02-24T03:03:17.914Z,97.10
2023-02-24T03:06:27.931Z,97.71
2023-02-24T03:09:36.017Z,97.73
2023-02-24T03:12:40.288Z,97.66
2023-02-24T03:15:45.000Z,98.05
2023-02-24T03:18:53.083Z,98.02
2023-02-24T03:22:07.791Z,97.86
2023-02-24T03:25:10.835Z,98.20
2023-02-24T03:28:34.074Z,98.43
2023-02-24T03:31:49.865Z,98.65
2023-02-24T03:34:58.356Z,99.57
2023-02-24T03:38:05.171Z,100.00
2023-02-24T03:41:11.287Z,99.98
2023-02-24T03:44:14.932Z,99.77
2023-02-24T03:47:20.423Z,99.89
2023-02-24T03:50:26.898Z,100.00
2023-02-24T03:53:31.005Z,98.72
2023-02-24T03:57:15.979Z,98.10
2023-02-24T04:00:25.949Z,98.70
2023-02-24T04:03:35.834Z,98.21
2023-02-24T04:06:58.169Z,97.40
2023-02-24T04:10:09.470Z,97.94
2023-02-24T04:14:06.355Z,97.45
2023-02-24T04:17:22.328Z,98.18
2023-02-24T04:20:30.889Z,98.59
2023-02-24T04:23:43.504Z,98.71
2023-02-24T04:26:47.232Z,98.89
2023-02-24T04:29:54.023Z,98.93
2023-02-24T04:32:57.605Z,99.17
2023-02-24T04:36:00.646Z,98.86
2023-02-24T04:39:05.067Z,98.63
2023-02-24T04:42:08.293Z,98.66
2023-02-24T04:45:12.982Z,98.74
2023-02-24T04:48:15.904Z,99.08
2023-02-24T04:51:21.072Z,99.00
2023-02-24T04:54:24.394Z,99.22
2023-02-24T04:57:27.274Z,99.46
2023-02-24T05:00:35.746Z,99.64
2023-02-24T05:03:42.364Z,99.84
2023-02-24T05:06:46.405Z,100.00
2023-02-24T05:09:49.114Z,100.00
2023-02-24T05:12:53.768Z,100.00
2023-02-24T05:16:08.562Z,100.00
2023-02-24T05:19:31.870Z,100.00
2023-02-24T05:22:34.424Z,100.00
2023-02-24T05:25:37.960Z,100.00
2023-02-24T05:28:41.169Z,100.00
2023-02-24T05:31:44.106Z,100.00
2023-02-24T05:34:47.167Z,100.00
2023-02-24T05:37:51.690Z,100.00
2023-02-24T05:41:04.624Z,100.00
2023-02-24T05:44:12.767Z,100.00
2023-02-24T05:47:19.690Z,100.00
2023-02-24T05:50:26.432Z,100.00
2023-02-24T05:53:29.170Z,100.00
2023-02-24T05:56:33.138Z,100.00
2023-02-24T05:59:36.240Z,100.00
2023-02-24T06:02:39.156Z,100.00
2023-02-24T06:05:42.656Z,100.00
2023-02-24T06:08:51.957Z,100.00
2023-02-24T06:11:54.861Z,100.00
2023-02-24T06:15:00.428Z,100.00
2023-02-24T06:18:03.637Z,100.00
2023-02-24T06:21:07.414Z,99.75
2023-02-24T06:24:15.790Z,100.00
2023-02-24T06:27:19.847Z,100.00
2023-02-24T06:30:24.699Z,100.00
2023-02-24T06:33:27.392Z,100.00
2023-02-24T06:36:30.225Z,100.00
2023-02-24T06:39:35.493Z,100.00
2023-02-24T06:42:39.397Z,100.00
2023-02-24T06:45:41.972Z,100.00
2023-02-24T06:48:44.910Z,100.00
2023-02-24T06:51:48.685Z,100.00
2023-02-24T06:54:52.497Z,100.00
2023-02-24T06:58:04.726Z,100.00
2023-02-24T07:01:12.017Z,100.00
2023-02-24T07:04:15.587Z,100.00
2023-02-24T07:07:19.860Z,100.00
2023-02-24T07:10:22.518Z,100.00
2023-02-24T07:13:28.809Z,100.00
2023-02-24T07:16:34.378Z,100.00
2023-02-24T07:19:37.418Z,100.00
2023-02-24T07:22:39.982Z,100.00
2023-02-24T07:25:46.316Z,100.00
2023-02-24T07:28:49.142Z,100.00
2023-02-24T07:31:55.015Z,100.00
2023-02-24T07:34:59.469Z,100.00
2023-02-24T07:38:05.469Z,100.00
2023-02-24T07:41:10.766Z,100.00
2023-02-24T07:44:13.811Z,100.00
2023-02-24T07:47:16.433Z,100.00
2023-02-24T07:50:19.450Z,100.00
2023-02-24T07:53:22.784Z,100.00
2023-02-24T07:56:27.997Z,100.00
2023-02-24T07:59:32.923Z,100.00
2023-02-24T08:02:35.770Z,100.00
2023-02-24T08:05:39.155Z,100.00
2023-02-24T08:08:57.930Z,100.00
2023-02-24T08:12:01.213Z,100.00
2023-02-24T08:15:16.948Z,100.00
2023-02-24T08:18:20.195Z,100.00
2023-02-24T08:21:23.679Z,100.00
2023-02-24T08:24:30.113Z,100.00
2023-02-24T08:27:38.785Z,100.00
2023-02-24T08:30:47.110Z,100.00
2023-02-24T08:33:50.020Z,100.00
2023-02-24T08:36:56.009Z,100.00
2023-02-24T08:39:58.751Z,100.00
2023-02-24T08:43:17.384Z,100.00
2023-02-24T08:46:26.556Z,100.00
2023-02-24T08:49:33.206Z,100.00
2023-02-24T08:52:35.908Z,100.00
2023-02-24T08:55:39.961Z,100.00
2023-02-24T08:58:47.700Z,100.00
2023-02-24T09:02:04.260Z,99.87
2023-02-24T09:05:13.207Z,98.85
2023-02-24T09:08:19.903Z,97.96
2023-02-24T09:11:23.106Z,96.47
2023-02-24T09:14:37.545Z,94.64
2023-02-24T09:17:45.487Z,93.85
2023-02-24T09:21:15.920Z,92.70
2023-02-24T09:24:27.569Z,91.97
2023-02-24T09:27:30.402Z,90.99
2023-02-24T09:30:36.189Z,90.34
2023-02-24T09:33:39.788Z,89.27
2023-02-24T09:36:45.220Z,88.27
2023-02-24T09:39:57.294Z,87.09
2023-02-24T09:42:59.983Z,85.37
2023-02-24T09:46:16.281Z,84.23
2023-02-24T09:49:20.206Z,82.88
2023-02-24T09:52:39.784Z,81.95
2023-02-24T09:56:03.853Z,81.64
2023-02-24T09:59:12.825Z,79.13
2023-02-24T10:02:31.257Z,78.34
2023-02-24T10:05:48.525Z,76.38
2023-02-24T10:09:11.576Z,75.48
2023-02-24T10:12:17.129Z,73.84
2023-02-24T10:15:46.584Z,72.50
2023-02-24T10:19:15.429Z,71.01
2023-02-24T10:22:55.940Z,70.94
2023-02-24T10:26:34.776Z,68.54
2023-02-24T10:29:46.450Z,67.04
2023-02-24T10:32:58.848Z,66.08
2023-02-24T10:36:13.342Z,67.26
2023-02-24T10:39:25.545Z,70.88
2023-02-24T10:42:31.789Z,73.36
2023-02-24T10:45:45.145Z,75.10
2023-02-24T10:49:00.641Z,76.21
2023-02-24T10:52:09.152Z,75.37
2023-02-24T10:55:38.995Z,74.30
2023-02-24T10:58:49.685Z,71.15
2023-02-24T11:02:06.612Z,71.17
2023-02-24T11:05:38.663Z,69.35
2023-02-24T11:09:01.270Z,68.63
2023-02-24T11:12:31.777Z,65.31
2023-02-24T11:15:54.908Z,65.00
2023-02-24T11:18:58.277Z,65.74
2023-02-24T11:22:01.943Z,68.26
2023-02-24T11:25:26.821Z,69.63
2023-02-24T11:28:35.509Z,70.09
2023-02-24T11:32:02.437Z,70.87
2023-02-24T11:35:18.601Z,71.26
2023-02-24T11:38:27.907Z,69.54
2023-02-24T11:41:34.286Z,67.87
2023-02-24T11:44:40.299Z,66.79
2023-02-24T11:47:46.683Z,65.04
2023-02-24T11:51:19.270Z,63.17
2023-02-24T11:54:23.324Z,60.64
2023-02-24T11:57:50.456Z,59.91
2023-02-24T12:00:59.918Z,58.64
2023-02-24T12:04:33.864Z,58.01
2023-02-24T12:07:39.118Z,57.19
2023-02-24T12:10:47.703Z,56.26
2023-02-24T12:14:04.934Z,55.29
2023-02-24T12:17:14.159Z,56.76
2023-02-24T12:20:41.554Z,60.06
2023-02-24T12:23:45.839Z,60.90
2023-02-24T12:27:01.360Z,59.90
2023-02-24T12:30:49.030Z,57.97
2023-02-24T12:34:08.833Z,56.93
2023-02-24T12:37:50.677Z,56.90
2023-02-24T12:41:28.303Z,58.76
2023-02-24T12:45:07.910Z,59.41
2023-02-24T12:48:31.985Z,58.48
2023-02-24T12:51:53.821Z,58.43
2023-02-24T12:55:27.934Z,59.90
2023-02-24T12:58:34.381Z,60.67
2023-02-24T13:01:47.400Z,61.71
2023-02-24T13:05:13.524Z,62.93
2023-02-24T13:08:29.484Z,64.99
2023-02-24T13:11:47.743Z,66.96
2023-02-24T13:14:51.036Z,67.34
2023-02-24T13:17:58.001Z,67.59
2023-02-24T13:21:22.838Z,67.60
2023-02-24T13:24:27.570Z,68.05
2023-02-24T13:27:33.711Z,67.46
2023-02-24T13:30:44.630Z,65.62
2023-02-24T13:33:48.408Z,64.67
2023-02-24T13:36:51.217Z,64.35
2023-02-24T13:39:53.915Z,64.16
2023-02-24T13:42:57.168Z,64.19
2023-02-24T13:46:02.660Z,64.30
2023-02-24T13:49:50.353Z,65.29
2023-02-24T13:53:11.095Z,66.57
2023-02-24T13:56:17.006Z,67.61
2023-02-24T13:59:47.546Z,69.33
2023-02-24T14:02:53.033Z,71.01
2023-02-24T14:05:59.192Z,72.47
2023-02-24T14:09:03.655Z,73.79
2023-02-24T14:12:19.676Z,74.21
2023-02-24T14:15:24.706Z,74.53
2023-02-24T14:18:29.321Z,74.26
2023-02-24T14:21:33.797Z,74.48
2023-02-24T14:24:36.642Z,75.01
2023-02-24T14:27:40.036Z,75.47
2023-02-24T14:30:43.056Z,76.13
2023-02-24T14:33:45.778Z,75.93
2023-02-24T14:37:01.441Z,75.36
2023-02-24T14:40:05.954Z,75.42
2023-02-24T14:43:15.104Z,76.18
2023-02-24T14:46:17.746Z,77.28
2023-02-24T14:49:24.314Z,78.23
2023-02-24T14:52:46.293Z,78.44
2023-02-24T14:55:52.172Z,78.40
2023-02-24T14:59:00.092Z,78.95
2023-02-24T15:02:04.798Z,79.13
2023-02-24T15:05:08.704Z,79.31
2023-02-24T15:08:48.862Z,79.37
2023-02-24T15:11:53.373Z,79.14
2023-02-24T15:15:01.912Z,79.14
2023-02-24T15:18:11.049Z,79.36
2023-02-24T15:21:40.727Z,79.69
2023-02-24T15:24:43.443Z,79.64
2023-02-24T15:28:04.769Z,80.08
2023-02-24T15:31:18.837Z,80.21
2023-02-24T15:34:34.908Z,80.19
2023-02-24T15:37:42.071Z,79.73
2023-02-24T15:40:52.776Z,79.29
2023-02-24T15:43:56.310Z,77.98
2023-02-24T15:47:00.858Z,77.65
2023-02-24T15:50:03.738Z,77.67
2023-02-24T15:53:08.891Z,78.03
2023-02-24T15:56:11.428Z,77.88
2023-02-24T15:59:15.887Z,78.07
2023-02-24T16:02:20.581Z,78.34
2023-02-24T16:05:24.499Z,78.68
2023-02-24T16:08:27.457Z,78.81
2023-02-24T16:11:32.763Z,79.15
2023-02-24T16:14:35.573Z,79.36
2023-02-24T16:17:40.337Z,79.67
2023-02-24T16:20:43.051Z,79.56
2023-02-24T16:23:46.033Z,79.15
2023-02-24T16:26:48.878Z,79.60
2023-02-24T16:29:53.120Z,80.09
2023-02-24T16:33:00.124Z,80.66
2023-02-24T16:36:03.413Z,81.08
2023-02-24T16:39:06.361Z,81.73
2023-02-24T16:42:10.707Z,82.24
2023-02-24T16:45:13.458Z,82.67
2023-02-24T16:48:21.302Z,82.90
2023-02-24T16:51:24.013Z,83.17
2023-02-24T16:54:29.530Z,83.64
2023-02-24T16:57:32.216Z,84.02
2023-02-24T17:00:35.319Z,84.15
2023-02-24T17:03:42.837Z,84.48
2023-02-24T17:06:46.124Z,84.64
2023-02-24T17:09:48.919Z,84.90
2023-02-24T17:12:52.463Z,85.24
2023-02-24T17:15:57.238Z,85.39
2023-02-24T17:19:00.769Z,85.70
2023-02-24T17:22:05.205Z,85.69
2023-02-24T17:25:10.998Z,86.15
2023-02-24T17:28:14.387Z,86.36
2023-02-24T17:31:18.601Z,86.39
2023-02-24T17:34:24.133Z,86.83
2023-02-24T17:37:27.014Z,87.05
2023-02-24T17:40:29.718Z,87.43
2023-02-24T17:43:32.658Z,87.79
2023-02-24T17:46:35.560Z,88.06
2023-02-24T17:49:39.769Z,88.52
2023-02-24T17:52:42.720Z,88.80
2023-02-24T17:56:01.488Z,89.11
2023-02-24T17:59:05.471Z,89.13
2023-02-24T18:02:10.902Z,89.40
2023-02-24T18:05:14.015Z,89.41
2023-02-24T18:08:16.853Z,89.51
2023-02-24T18:11:20.699Z,89.53
2023-02-24T18:14:23.504Z,89.34
2023-02-24T18:17:26.721Z,89.56
2023-02-24T18:20:30.585Z,89.60
2023-02-24T18:23:33.693Z,89.60
2023-02-24T18:26:36.834Z,89.37
2023-02-24T18:29:40.130Z,89.28
2023-02-24T18:32:44.871Z,89.06
2023-02-24T18:35:49.506Z,88.81
2023-02-24T18:38:53.291Z,88.71
2023-02-24T18:41:59.339Z,88.65
2023-02-24T18:45:02.367Z,88.66
2023-02-24T18:48:05.611Z,88.63
2023-02-24T18:51:08.872Z,88.56
2023-02-24T18:54:13.138Z,87.98
2023-02-24T18:57:16.054Z,87.67
2023-02-24T19:00:20.336Z,87.65
2023-02-24T19:03:23.689Z,87.21
2023-02-24T19:06:30.159Z,87.36
2023-02-24T19:09:33.394Z,87.21
2023-02-24T19:12:36.853Z,87.48
2023-02-24T19:15:40.176Z,87.28
2023-02-24T19:18:43.993Z,87.39
2023-02-24T19:21:48.378Z,87.57
2023-02-24T19:24:51.524Z,87.74
2023-02-24T19:27:54.493Z,88.07
2023-02-24T19:30:57.694Z,88.31
2023-02-24T19:34:07.467Z,88.70
2023-02-24T19:37:10.581Z,89.20
2023-02-24T19:40:13.184Z,89.50
2023-02-24T19:43:16.640Z,89.74
2023-02-24T19:46:19.623Z,89.97
2023-02-24T19:49:23.604Z,90.24
2023-02-24T19:52:26.408Z,90.46
2023-02-24T19:55:29.485Z,91.17
2023-02-24T19:58:32.538Z,91.37
2023-02-24T20:01:35.451Z,91.50
2023-02-24T20:04:38.708Z,91.91
2023-02-24T20:07:43.354Z,92.31
2023-02-24T20:10:46.809Z,92.43
2023-02-24T20:13:53.268Z,92.74
2023-02-24T20:16:56.487Z,92.76
2023-02-24T20:19:59.480Z,92.89
2023-02-24T20:23:02.812Z,92.95
2023-02-24T20:26:06.578Z,92.92
2023-02-24T20:29:11.486Z,93.41
2023-02-24T20:32:14.633Z,93.91
2023-02-24T20:35:17.743Z,94.09
2023-02-24T20:38:20.576Z,94.75
2023-02-24T20:41:23.767Z,95.14
2023-02-24T20:44:27.097Z,95.31
2023-02-24T20:47:30.206Z,95.72
2023-02-24T20:50:36.091Z,95.93
2023-02-24T20:53:55.975Z,96.30
2023-02-24T20:57:00.427Z,96.68
2023-02-24T21:00:08.026Z,96.90
2023-02-24T21:03:12.465Z,97.28
2023-02-24T21:06:17.156Z,97.69
2023-02-24T21:09:20.105Z,98.10
2023-02-24T21:12:23.770Z,98.38
2023-02-24T21:15:26.624Z,99.00
2023-02-24T21:18:29.799Z,99.69
2023-02-24T21:21:32.511Z,100.00
2023-02-24T21:24:35.468Z,100.00
2023-02-24T21:27:38.874Z,100.00
2023-02-24T21:30:42.761Z,100.00
2023-02-24T21:33:50.117Z,100.00
2023-02-24T21:36:53.779Z,100.00
2023-02-24T21:39:56.660Z,100.00
2023-02-24T21:42:59.607Z,100.00
2023-02-24T21:46:05.505Z,100.00
2023-02-24T21:49:14.543Z,100.00
2023-02-24T21:52:17.429Z,100.00
2023-02-24T21:55:20.420Z,100.00
2023-02-24T21:58:24.021Z,100.00
2023-02-24T22:01:32.906Z,100.00
2023-02-24T22:04:35.973Z,100.00
2023-02-24T22:07:38.648Z,100.00
2023-02-24T22:10:41.728Z,100.00
2023-02-24T22:13:45.795Z,100.00
2023-02-24T22:16:49.077Z,100.00
2023-02-24T22:19:51.719Z,100.00
2023-02-24T22:22:54.645Z,100.00
2023-02-24T22:25:57.358Z,100.00
2023-02-24T22:29:00.759Z,100.00
2023-02-24T22:32:04.903Z,100.00
2023-02-24T22:35:08.315Z,100.00
2023-02-24T22:38:11.016Z,100.00
2023-02-24T22:41:19.899Z,100.00
2023-02-24T22:44:22.722Z,100.00
2023-02-24T22:47:25.922Z,100.00
2023-02-24T22:50:28.439Z,100.00
2023-02-24T22:53:33.278Z,100.00
2023-02-24T22:56:36.178Z,100.00
2023-02-24T22:59:39.128Z,100.00
2023-02-24T23:02:41.888Z,100.00
2023-02-24T23:05:55.857Z,100.00
2023-02-24T23:09:00.050Z,100.00
2023-02-24T23:12:03.221Z,100.00
2023-02-24T23:15:06.781Z,100.00
2023-02-24T23:18:10.748Z,100.00
2023-02-24T23:21:13.272Z,100.00
2023-02-24T23:24:17.786Z,100.00
2023-02-24T23:27:21.713Z,100.00
2023-02-24T23:30:24.945Z,100.00
2023-02-24T23:33:28.218Z,100.00
2023-02-24T23:36:31.152Z,100.00
2023-02-24T23:39:33.786Z,100.00
2023-02-24T23:42:38.147Z,100.00
2023-02-24T23:45:42.014Z,100.00
2023-02-24T23:48:45.843Z,100.00
2023-02-24T23:51:49.319Z,100.00
2023-02-24T23:54:52.944Z,100.00
2023-02-24T23:57:56.137Z,100.00
